createdAt,value
2019-03-24T00:02:06.465Z,99.90
2019-03-24T00:04:34.942Z,99.90
2019-03-24T00:07:03.353Z,99.90
2019-03-24T00:09:31.757Z,99.90
2019-03-24T00:12:00.174Z,99.90
2019-03-24T00:14:28.663Z,99.90
2019-03-24T00:16:57.072Z,99.90
2019-03-24T00:19:25.483Z,99.90
2019-03-24T00:21:53.900Z,99.90
2019-03-24T00:24:22.299Z,99.90
2019-03-24T00:26:50.709Z,99.90
2019-03-24T00:29:19.194Z,99.90
2019-03-24T00:31:47.615Z,99.90
2019-03-24T00:34:16.018Z,99.90
2019-03-24T00:36:44.440Z,99.90
2019-03-24T00:39:12.837Z,99.90
2019-03-24T00:41:41.254Z,99.90
2019-03-24T00:44:09.655Z,99.90
2019-03-24T00:46:38.065Z,99.90
2019-03-24T00:49:06.469Z,99.90
2019-03-24T00:51:34.886Z,99.90
2019-03-24T00:54:03.294Z,99.90
2019-03-24T00:56:31.720Z,99.90
2019-03-24T00:59:00.125Z,99.90
2019-03-24T01:01:28.539Z,99.90
2019-03-24T01:03:56.941Z,99.90
2019-03-24T01:06:25.354Z,99.90
2019-03-24T01:08:53.785Z,99.90
2019-03-24T01:11:22.268Z,99.90
2019-03-24T01:13:50.673Z,99.90
2019-03-24T01:16:19.243Z,99.90
2019-03-24T01:18:47.650Z,99.90
2019-03-24T01:21:16.065Z,99.90
2019-03-24T01:23:44.473Z,99.90
2019-03-24T01:26:12.878Z,99.90
2019-03-24T01:28:41.285Z,99.90
2019-03-24T01:31:09.689Z,99.90
2019-03-24T01:33:38.097Z,99.90
2019-03-24T01:36:06.505Z,99.90
2019-03-24T01:38:34.926Z,99.90
2019-03-24T01:41:03.597Z,99.90
2019-03-24T01:43:32.002Z,99.90
2019-03-24T01:46:00.479Z,99.90
2019-03-24T01:48:28.887Z,99.90
2019-03-24T01:50:57.286Z,99.90
2019-03-24T01:53:25.693Z,99.90
2019-03-24T01:55:54.158Z,99.90
2019-03-24T01:58:22.588Z,99.90
2019-03-24T02:00:51.060Z,99.90
2019-03-24T02:03:19.546Z,99.90
2019-03-24T02:05:48.032Z,99.90
2019-03-24T02:08:16.430Z,99.90
2019-03-24T02:10:44.833Z,99.90
2019-03-24T02:13:13.253Z,99.90
2019-03-24T02:15:41.725Z,99.90
2019-03-24T02:18:10.142Z,99.90
2019-03-24T02:20:38.536Z,99.90
2019-03-24T02:23:06.977Z,99.90
2019-03-24T02:25:35.385Z,99.90
2019-03-24T02:28:03.854Z,99.90
2019-03-24T02:30:32.260Z,99.90
2019-03-24T02:33:00.671Z,99.90
2019-03-24T02:35:29.077Z,99.90
2019-03-24T02:37:57.481Z,99.90
2019-03-24T02:40:25.949Z,99.90
2019-03-24T02:42:54.361Z,99.90
2019-03-24T02:45:22.840Z,99.90
2019-03-24T02:47:51.248Z,99.90
2019-03-24T02:50:19.649Z,99.90
2019-03-24T02:52:48.218Z,99.90
2019-03-24T02:55:16.628Z,99.90
2019-03-24T02:57:45.031Z,99.90
2019-03-24T03:00:13.608Z,99.90
2019-03-24T03:02:42.010Z,99.90
2019-03-24T03:05:10.858Z,99.90
2019-03-24T03:07:39.325Z,99.90
2019-03-24T03:10:09.284Z,99.90
2019-03-24T03:12:37.685Z,99.90
2019-03-24T03:15:08.310Z,99.90
2019-03-24T03:17:36.716Z,99.90
2019-03-24T03:20:07.167Z,99.90
2019-03-24T03:22:35.570Z,99.90
2019-03-24T03:25:06.281Z,99.90
2019-03-24T03:27:34.733Z,99.90
2019-03-24T03:30:03.309Z,99.90
2019-03-24T03:32:31.718Z,99.90
2019-03-24T03:35:00.794Z,99.90
2019-03-24T03:37:29.519Z,99.90
2019-03-24T03:39:58.534Z,99.90
2019-03-24T03:42:27.101Z,99.90
2019-03-24T03:44:55.505Z,99.90
2019-03-24T03:47:23.917Z,99.90
2019-03-24T03:49:52.327Z,99.90
2019-03-24T03:52:20.786Z,99.90
2019-03-24T03:54:49.265Z,99.90
2019-03-24T03:57:17.671Z,99.90
2019-03-24T03:59:46.307Z,99.90
2019-03-24T04:02:14.715Z,99.90
2019-03-24T04:04:43.118Z,99.90
2019-03-24T04:07:11.517Z,99.90
2019-03-24T04:09:39.934Z,99.90
2019-03-24T04:12:08.354Z,99.90
2019-03-24T04:14:36.753Z,99.90
2019-03-24T04:17:07.492Z,99.90
2019-03-24T04:19:35.310Z,99.90
2019-03-24T04:22:03.793Z,99.90
2019-03-24T04:24:32.191Z,99.90
2019-03-24T04:27:00.600Z,99.90
2019-03-24T04:29:29.026Z,99.90
2019-03-24T04:31:57.430Z,99.90
2019-03-24T04:34:25.834Z,99.90
2019-03-24T04:36:54.246Z,99.90
2019-03-24T04:39:22.656Z,99.90
2019-03-24T04:41:51.063Z,99.90
2019-03-24T04:44:19.469Z,99.90
2019-03-24T04:46:47.941Z,99.90
2019-03-24T04:49:16.349Z,99.90
2019-03-24T04:51:44.752Z,99.90
2019-03-24T04:54:13.161Z,99.90
2019-03-24T04:56:41.565Z,99.90
2019-03-24T04:59:09.985Z,99.90
2019-03-24T05:01:38.387Z,99.90
2019-03-24T05:04:06.793Z,99.90
2019-03-24T05:06:35.371Z,99.90
2019-03-24T05:09:04.485Z,99.90
2019-03-24T05:11:32.890Z,99.90
2019-03-24T05:14:01.370Z,99.90
2019-03-24T05:16:29.781Z,99.90
2019-03-24T05:18:58.481Z,99.90
2019-03-24T05:21:26.886Z,99.90
2019-03-24T05:23:55.328Z,99.90
2019-03-24T05:26:23.731Z,99.90
2019-03-24T05:28:52.145Z,99.90
2019-03-24T05:31:20.550Z,99.90
2019-03-24T05:33:48.979Z,99.90
2019-03-24T05:36:17.385Z,99.90
2019-03-24T05:38:45.802Z,99.90
2019-03-24T05:41:14.205Z,99.90
2019-03-24T05:43:42.622Z,99.90
2019-03-24T05:46:11.028Z,99.90
2019-03-24T05:48:39.441Z,99.90
2019-03-24T05:51:07.847Z,99.90
2019-03-24T05:53:36.264Z,99.90
2019-03-24T05:56:04.671Z,99.90
2019-03-24T05:58:34.624Z,99.90
2019-03-24T06:01:03.038Z,99.90
2019-03-24T06:03:31.481Z,99.90
2019-03-24T06:05:59.904Z,99.90
2019-03-24T06:08:28.325Z,99.90
2019-03-24T06:10:56.753Z,99.90
2019-03-24T06:13:25.169Z,99.90
2019-03-24T06:15:53.589Z,99.90
2019-03-24T06:18:21.994Z,99.90
2019-03-24T06:20:50.404Z,99.90
2019-03-24T06:23:18.840Z,99.90
2019-03-24T06:25:47.293Z,99.90
2019-03-24T06:28:15.700Z,99.90
2019-03-24T06:30:44.105Z,99.90
2019-03-24T06:33:12.510Z,99.90
2019-03-24T06:35:40.921Z,99.90
2019-03-24T06:38:09.313Z,99.90
2019-03-24T06:40:37.720Z,99.90
2019-03-24T06:43:06.135Z,99.90
2019-03-24T06:45:34.537Z,99.90
2019-03-24T06:48:02.953Z,99.90
2019-03-24T06:50:31.365Z,99.90
2019-03-24T06:52:59.765Z,99.90
2019-03-24T06:55:28.181Z,99.90
2019-03-24T06:57:56.585Z,99.90
2019-03-24T07:00:25.001Z,99.90
2019-03-24T07:02:53.401Z,99.90
2019-03-24T07:05:21.839Z,99.90
2019-03-24T07:07:50.302Z,99.90
2019-03-24T07:10:18.817Z,99.90
2019-03-24T07:12:47.220Z,99.90
2019-03-24T07:15:15.706Z,99.90
2019-03-24T07:17:44.138Z,99.90
2019-03-24T07:20:12.784Z,99.90
2019-03-24T07:22:41.189Z,99.90
2019-03-24T07:25:10.334Z,99.90
2019-03-24T07:27:38.737Z,99.90
2019-03-24T07:30:10.001Z,99.90
2019-03-24T07:32:38.410Z,99.90
2019-03-24T07:35:07.657Z,99.90
2019-03-24T07:37:36.295Z,99.90
2019-03-24T07:40:08.673Z,99.90
2019-03-24T07:42:37.100Z,99.90
2019-03-24T07:45:07.941Z,99.90
2019-03-24T07:47:36.357Z,99.90
2019-03-24T07:50:08.021Z,99.90
2019-03-24T07:52:36.605Z,99.90
2019-03-24T07:55:06.662Z,99.90
2019-03-24T07:57:35.072Z,99.90
2019-03-24T08:00:05.075Z,99.90
2019-03-24T08:02:33.490Z,99.90
2019-03-24T08:05:01.906Z,99.90
2019-03-24T08:07:30.356Z,99.90
2019-03-24T08:09:58.927Z,99.90
2019-03-24T08:12:27.337Z,99.90
2019-03-24T08:14:55.746Z,99.90
2019-03-24T08:17:24.165Z,99.90
2019-03-24T08:19:52.577Z,99.90
2019-03-24T08:22:20.996Z,99.90
2019-03-24T08:24:49.496Z,95.60
2019-03-24T08:27:17.911Z,93.40
2019-03-24T08:29:46.350Z,95.70
2019-03-24T08:32:14.829Z,99.90
2019-03-24T08:34:43.240Z,99.90
2019-03-24T08:37:11.692Z,91.60
2019-03-24T08:39:40.110Z,76.40
2019-03-24T08:42:08.524Z,67.30
2019-03-24T08:44:36.934Z,65.60
2019-03-24T08:47:05.425Z,64.80
2019-03-24T08:49:33.839Z,65.30
2019-03-24T08:52:03.153Z,67.00
2019-03-24T08:54:31.671Z,61.30
2019-03-24T08:57:00.158Z,60.50
2019-03-24T08:59:28.629Z,58.50
2019-03-24T09:01:57.036Z,58.00
2019-03-24T09:04:25.464Z,55.10
2019-03-24T09:06:53.869Z,55.10
2019-03-24T09:09:22.283Z,54.90
2019-03-24T09:11:50.688Z,56.60
2019-03-24T09:14:19.105Z,55.40
2019-03-24T09:16:47.517Z,53.70
2019-03-24T09:19:15.932Z,53.10
2019-03-24T09:21:44.359Z,50.40
2019-03-24T09:24:12.778Z,51.20
2019-03-24T09:26:41.186Z,51.80
2019-03-24T09:29:09.606Z,50.50
2019-03-24T09:31:38.013Z,48.20
2019-03-24T09:34:06.425Z,46.90
2019-03-24T09:36:35.096Z,47.50
2019-03-24T09:39:04.962Z,46.20
2019-03-24T09:41:33.404Z,48.70
2019-03-24T09:44:01.835Z,50.60
2019-03-24T09:46:30.245Z,50.40
2019-03-24T09:49:03.163Z,48.60
2019-03-24T09:51:28.793Z,50.40
2019-03-24T09:53:57.221Z,47.80
2019-03-24T09:56:25.637Z,46.60
2019-03-24T09:58:54.117Z,46.20
2019-03-24T10:01:22.529Z,47.20
2019-03-24T10:03:50.960Z,46.50
2019-03-24T10:06:19.438Z,45.60
2019-03-24T10:08:47.861Z,45.50
2019-03-24T10:11:16.273Z,46.20
2019-03-24T10:13:44.694Z,47.50
2019-03-24T10:16:13.161Z,50.00
2019-03-24T10:18:41.593Z,49.80
2019-03-24T10:21:09.988Z,50.10
2019-03-24T10:23:38.416Z,49.70
2019-03-24T10:26:06.821Z,49.10
2019-03-24T10:28:35.273Z,48.30
2019-03-24T10:31:03.711Z,49.20
2019-03-24T10:33:32.279Z,52.30
2019-03-24T10:36:00.692Z,54.80
2019-03-24T10:38:29.108Z,56.80
2019-03-24T10:40:57.515Z,58.90
2019-03-24T10:43:25.912Z,59.20
2019-03-24T10:45:54.324Z,61.60
2019-03-24T10:48:33.189Z,60.20
2019-03-24T10:50:53.006Z,59.20
2019-03-24T10:53:21.417Z,60.80
2019-03-24T10:55:49.830Z,60.20
2019-03-24T10:58:18.242Z,59.90
2019-03-24T11:00:46.858Z,61.60
2019-03-24T11:03:15.313Z,60.90
2019-03-24T11:05:43.745Z,65.70
2019-03-24T11:08:12.374Z,68.00
2019-03-24T11:10:40.962Z,70.80
2019-03-24T11:13:09.371Z,76.30
2019-03-24T11:15:37.784Z,87.90
2019-03-24T11:18:06.265Z,93.90
2019-03-24T11:20:34.685Z,96.80
2019-03-24T11:23:03.110Z,98.10
2019-03-24T11:25:31.520Z,99.90
2019-03-24T11:28:00.012Z,99.90
2019-03-24T11:30:28.433Z,99.90
2019-03-24T11:32:56.888Z,99.90
2019-03-24T11:35:25.305Z,99.90
2019-03-24T11:37:53.717Z,99.90
2019-03-24T11:40:22.138Z,99.90
2019-03-24T11:42:50.549Z,99.90
2019-03-24T11:45:19.135Z,99.70
2019-03-24T11:47:47.673Z,99.90
2019-03-24T11:50:16.313Z,99.90
2019-03-24T11:52:45.101Z,99.90
2019-03-24T11:55:13.802Z,99.90
2019-03-24T11:57:42.213Z,99.90
2019-03-24T12:00:12.560Z,99.90
2019-03-24T12:02:41.041Z,99.90
2019-03-24T12:05:09.884Z,99.90
2019-03-24T12:07:38.304Z,99.90
2019-03-24T12:10:07.845Z,99.90
2019-03-24T12:12:36.362Z,99.90
2019-03-24T12:15:06.409Z,99.90
2019-03-24T12:17:34.821Z,99.90
2019-03-24T12:20:04.861Z,96.40
2019-03-24T12:22:33.272Z,99.80
2019-03-24T12:25:01.682Z,99.90
2019-03-24T12:27:30.118Z,99.90
2019-03-24T12:29:58.526Z,99.90
2019-03-24T12:32:26.964Z,99.90
2019-03-24T12:34:55.425Z,97.30
2019-03-24T12:37:23.847Z,95.20
2019-03-24T12:39:52.255Z,99.90
2019-03-24T12:42:20.688Z,98.00
2019-03-24T12:44:49.093Z,97.80
2019-03-24T12:47:17.506Z,99.40
2019-03-24T12:49:45.924Z,98.50
2019-03-24T12:52:14.334Z,98.00
2019-03-24T12:54:42.737Z,99.90
2019-03-24T12:57:11.157Z,99.20
2019-03-24T12:59:39.580Z,99.90
2019-03-24T13:02:07.987Z,99.90
2019-03-24T13:04:36.404Z,99.90
2019-03-24T13:07:04.806Z,99.90
2019-03-24T13:09:33.763Z,99.90
2019-03-24T13:12:02.453Z,99.90
2019-03-24T13:14:30.972Z,99.90
2019-03-24T13:16:59.542Z,99.90
2019-03-24T13:19:28.034Z,99.90
2019-03-24T13:21:56.570Z,99.90
2019-03-24T13:24:25.272Z,99.90
2019-03-24T13:26:53.693Z,99.90
2019-03-24T13:29:22.121Z,99.90
2019-03-24T13:31:50.525Z,99.90
2019-03-24T13:34:18.937Z,99.90
2019-03-24T13:36:47.346Z,99.90
2019-03-24T13:39:15.752Z,99.90
2019-03-24T13:41:44.165Z,99.90
2019-03-24T13:44:12.580Z,99.90
2019-03-24T13:46:40.987Z,99.90
2019-03-24T13:49:09.397Z,99.90
2019-03-24T13:51:37.809Z,99.90
2019-03-24T13:54:06.382Z,99.90
2019-03-24T13:56:34.799Z,99.90
2019-03-24T13:59:03.744Z,99.90
2019-03-24T14:01:32.145Z,99.90
2019-03-24T14:04:00.641Z,99.90
2019-03-24T14:06:29.414Z,99.90
2019-03-24T14:08:57.825Z,99.90
2019-03-24T14:11:26.241Z,99.90
2019-03-24T14:13:54.674Z,99.90
2019-03-24T14:16:23.081Z,99.90
2019-03-24T14:18:51.501Z,99.90
2019-03-24T14:21:19.905Z,99.90
2019-03-24T14:23:48.317Z,99.90
2019-03-24T14:26:16.750Z,99.90
2019-03-24T14:28:45.254Z,99.90
2019-03-24T14:31:13.653Z,99.90
2019-03-24T14:33:42.073Z,99.90
2019-03-24T14:36:10.482Z,99.90
2019-03-24T14:38:38.914Z,99.90
2019-03-24T14:41:07.315Z,99.90
2019-03-24T14:43:35.728Z,99.90
2019-03-24T14:46:04.137Z,99.90
2019-03-24T14:48:32.562Z,99.90
2019-03-24T14:51:01.033Z,99.90
2019-03-24T14:53:29.601Z,99.90
2019-03-24T14:55:58.054Z,99.90
2019-03-24T14:58:26.482Z,99.90
2019-03-24T15:00:54.893Z,99.90
2019-03-24T15:03:23.301Z,99.90
2019-03-24T15:05:51.721Z,99.90
2019-03-24T15:08:20.381Z,99.90
2019-03-24T15:10:48.799Z,99.90
2019-03-24T15:13:17.245Z,99.90
2019-03-24T15:15:45.657Z,99.90
2019-03-24T15:18:14.066Z,99.90
2019-03-24T15:20:42.486Z,99.90
2019-03-24T15:23:10.893Z,99.90
2019-03-24T15:25:39.370Z,99.90
2019-03-24T15:28:07.781Z,99.90
2019-03-24T15:30:36.191Z,99.90
2019-03-24T15:33:04.606Z,99.90
2019-03-24T15:35:33.085Z,99.90
2019-03-24T15:38:08.441Z,99.90
2019-03-24T15:40:31.793Z,99.90
2019-03-24T15:43:00.201Z,99.90
2019-03-24T15:45:28.609Z,99.90
2019-03-24T15:47:57.013Z,99.90
2019-03-24T15:50:25.430Z,99.90
2019-03-24T15:52:53.917Z,99.90
2019-03-24T15:55:22.490Z,99.90
2019-03-24T15:57:50.897Z,99.90
2019-03-24T16:00:22.424Z,99.90
2019-03-24T16:02:50.970Z,99.90
2019-03-24T16:05:19.386Z,99.90
2019-03-24T16:07:47.806Z,99.90
2019-03-24T16:10:16.220Z,99.90
2019-03-24T16:12:44.677Z,99.90
2019-03-24T16:15:13.199Z,99.90
2019-03-24T16:17:41.738Z,99.90
2019-03-24T16:20:10.317Z,99.90
2019-03-24T16:22:38.753Z,99.90
2019-03-24T16:25:07.902Z,99.90
2019-03-24T16:27:36.666Z,99.90
2019-03-24T16:30:07.942Z,99.90
2019-03-24T16:32:36.430Z,99.90
2019-03-24T16:35:06.075Z,99.90
2019-03-24T16:37:34.489Z,99.90
2019-03-24T16:40:03.274Z,99.90
2019-03-24T16:42:31.787Z,99.90
2019-03-24T16:45:00.313Z,99.90
2019-03-24T16:47:28.781Z,99.90
2019-03-24T16:49:57.201Z,99.90
2019-03-24T16:52:25.619Z,99.90
2019-03-24T16:54:54.048Z,99.90
2019-03-24T16:57:22.833Z,99.90
2019-03-24T16:59:51.338Z,99.90
2019-03-24T17:02:19.827Z,99.90
2019-03-24T17:04:48.237Z,99.90
2019-03-24T17:07:16.645Z,99.90
2019-03-24T17:09:45.063Z,99.90
2019-03-24T17:12:13.474Z,99.90
2019-03-24T17:14:41.881Z,99.90
2019-03-24T17:17:11.515Z,99.90
2019-03-24T17:19:40.142Z,99.90
2019-03-24T17:22:08.589Z,99.90
2019-03-24T17:24:36.997Z,99.90
2019-03-24T17:27:05.485Z,99.90
2019-03-24T17:29:33.922Z,99.90
2019-03-24T17:32:02.333Z,99.90
2019-03-24T17:34:30.742Z,99.90
2019-03-24T17:36:59.173Z,99.90
2019-03-24T17:39:27.588Z,99.90
2019-03-24T17:41:56.002Z,99.90
2019-03-24T17:44:24.482Z,99.90
2019-03-24T17:46:52.890Z,99.90
2019-03-24T17:49:21.307Z,99.90
2019-03-24T17:52:00.189Z,99.90
2019-03-24T17:54:19.973Z,99.90
2019-03-24T17:56:48.385Z,99.90
2019-03-24T17:59:16.857Z,99.90
2019-03-24T18:01:45.253Z,99.90
2019-03-24T18:04:13.670Z,99.90
2019-03-24T18:06:42.080Z,99.90
2019-03-24T18:09:10.498Z,99.90
2019-03-24T18:11:38.912Z,99.90
2019-03-24T18:14:07.322Z,99.90
2019-03-24T18:16:35.730Z,99.90
2019-03-24T18:19:04.150Z,99.90
2019-03-24T18:21:32.622Z,99.90
2019-03-24T18:24:01.077Z,99.90
2019-03-24T18:26:29.766Z,99.90
2019-03-24T18:28:58.180Z,99.90
2019-03-24T18:31:26.649Z,99.90
2019-03-24T18:33:55.078Z,99.90
2019-03-24T18:36:23.504Z,99.90
2019-03-24T18:38:52.007Z,99.90
2019-03-24T18:41:20.417Z,99.90
2019-03-24T18:43:48.861Z,99.90
2019-03-24T18:46:17.261Z,99.90
2019-03-24T18:48:45.666Z,99.90
2019-03-24T18:51:14.086Z,99.90
2019-03-24T18:53:42.562Z,99.90
2019-03-24T18:56:10.973Z,99.90
2019-03-24T18:58:39.375Z,99.90
2019-03-24T19:01:07.811Z,99.90
2019-03-24T19:03:36.193Z,99.90
2019-03-24T19:06:04.609Z,99.90
2019-03-24T19:08:33.014Z,99.90
2019-03-24T19:11:01.425Z,99.90
2019-03-24T19:13:29.840Z,99.90
2019-03-24T19:15:58.245Z,99.90
2019-03-24T19:18:26.655Z,99.90
2019-03-24T19:20:55.061Z,99.90
2019-03-24T19:23:23.474Z,99.90
2019-03-24T19:25:51.882Z,99.90
2019-03-24T19:28:20.285Z,99.90
2019-03-24T19:30:48.701Z,99.90
2019-03-24T19:33:17.119Z,99.90
2019-03-24T19:35:46.409Z,99.90
2019-03-24T19:38:14.808Z,99.90
2019-03-24T19:40:43.224Z,99.90
2019-03-24T19:43:11.942Z,99.90
2019-03-24T19:45:40.350Z,99.90
2019-03-24T19:48:08.837Z,99.90
2019-03-24T19:50:37.248Z,99.90
2019-03-24T19:53:05.780Z,99.90
2019-03-24T19:55:34.279Z,99.90
2019-03-24T19:58:02.747Z,99.90
2019-03-24T20:00:31.510Z,99.90
2019-03-24T20:02:59.914Z,99.90
2019-03-24T20:05:28.330Z,99.90
2019-03-24T20:07:57.010Z,99.90
2019-03-24T20:10:25.552Z,99.90
2019-03-24T20:12:54.157Z,99.90
2019-03-24T20:15:22.620Z,99.90
2019-03-24T20:17:51.030Z,99.90
2019-03-24T20:20:19.505Z,99.90
2019-03-24T20:22:56.574Z,99.90
2019-03-24T20:25:18.041Z,99.90
2019-03-24T20:27:46.450Z,99.90
2019-03-24T20:30:16.195Z,99.90
2019-03-24T20:32:44.603Z,99.90
2019-03-24T20:35:13.070Z,99.90
2019-03-24T20:37:41.521Z,99.90
2019-03-24T20:42:44.731Z,99.90
2019-03-24T20:45:14.381Z,99.90
2019-03-24T20:47:42.796Z,99.90
2019-03-24T20:50:11.646Z,99.90
2019-03-24T20:52:40.138Z,99.90
2019-03-24T20:55:08.720Z,99.90
2019-03-24T20:57:37.125Z,99.90
2019-03-24T21:00:07.561Z,99.90
2019-03-24T21:02:35.967Z,99.90
2019-03-24T21:05:05.718Z,99.90
2019-03-24T21:07:34.210Z,99.90
2019-03-24T21:10:02.623Z,99.90
2019-03-24T21:12:31.025Z,99.90
2019-03-24T21:14:59.437Z,99.90
2019-03-24T21:17:27.845Z,99.90
2019-03-24T21:19:56.249Z,99.90
2019-03-24T21:22:24.661Z,99.90
2019-03-24T21:24:53.065Z,99.90
2019-03-24T21:27:21.488Z,99.90
2019-03-24T21:29:49.889Z,99.90
2019-03-24T21:32:18.310Z,99.90
2019-03-24T21:34:46.717Z,99.90
2019-03-24T21:37:15.138Z,99.90
2019-03-24T21:39:43.537Z,99.90
2019-03-24T21:42:11.952Z,99.90
2019-03-24T21:44:40.354Z,99.90
2019-03-24T21:47:08.769Z,99.90
2019-03-24T21:49:37.174Z,99.90
2019-03-24T21:52:05.593Z,99.90
2019-03-24T21:54:34.002Z,99.90
2019-03-24T21:57:02.419Z,99.90
2019-03-24T21:59:30.824Z,99.90
2019-03-24T22:01:59.266Z,99.90
2019-03-24T22:04:27.716Z,99.90
2019-03-24T22:06:56.317Z,99.90
2019-03-24T22:09:24.706Z,99.90
2019-03-24T22:11:53.118Z,99.90
2019-03-24T22:14:21.520Z,99.90
2019-03-24T22:16:49.938Z,99.90
2019-03-24T22:19:18.344Z,99.90
2019-03-24T22:21:46.821Z,99.90
2019-03-24T22:24:15.229Z,99.90
2019-03-24T22:26:43.637Z,99.90
2019-03-24T22:29:12.046Z,99.90
2019-03-24T22:31:40.448Z,99.90
2019-03-24T22:34:08.919Z,99.90
2019-03-24T22:36:37.422Z,99.90
2019-03-24T22:39:07.705Z,99.90
2019-03-24T22:41:36.377Z,99.90
2019-03-24T22:44:05.282Z,99.90
2019-03-24T22:46:33.689Z,99.90
2019-03-24T22:49:02.098Z,99.90
2019-03-24T22:51:30.502Z,99.90
2019-03-24T22:54:03.270Z,99.90
2019-03-24T22:56:29.040Z,99.90
2019-03-24T22:58:57.449Z,99.90
2019-03-24T23:01:25.925Z,99.90
2019-03-24T23:03:54.337Z,99.90
2019-03-24T23:06:22.737Z,99.90
2019-03-24T23:08:51.221Z,99.90
2019-03-24T23:11:19.618Z,99.90
2019-03-24T23:13:48.016Z,99.90
2019-03-24T23:16:16.425Z,99.90
2019-03-24T23:18:44.838Z,99.90
2019-03-24T23:21:13.269Z,99.90
2019-03-24T23:23:41.754Z,99.90
2019-03-24T23:26:10.174Z,99.90
2019-03-24T23:28:38.570Z,99.90
2019-03-24T23:31:06.981Z,99.90
2019-03-24T23:33:35.386Z,99.90
2019-03-24T23:36:03.795Z,99.90
2019-03-24T23:38:32.200Z,99.90
2019-03-24T23:41:00.614Z,99.90
2019-03-24T23:43:29.014Z,99.90
2019-03-24T23:45:57.418Z,99.90
2019-03-24T23:48:25.819Z,99.90
2019-03-24T23:50:54.227Z,99.90
2019-03-24T23:53:22.632Z,99.90
2019-03-24T23:55:51.042Z,99.90
2019-03-24T23:58:19.466Z,99.90
